Time;durP1;ratioP1;P1;durP2;ratioP2;P2;SDS_P1;SDS_P2;PMS_P1;PMS_P2;Temp;Humidity;BMP_temperature;BMP_pressure;BME280_temperature;BME280_humidity;BME280_pressure;Samples;Min_cycle;Max_cycle;Signal;HPM_P1;HPM_P2
2022/10/29 00:01:49;;;;;;;26.25;18.23;;;19.90;90.70;;;;;;5032630;28;20080;-80
2022/10/29 00:04:15;;;;;;;25.00;17.58;;;19.90;90.70;;;;;;5034868;28;20119;-73
2022/10/29 00:06:41;;;;;;;22.52;16.45;;;19.80;90.70;;;;;;5031464;28;20102;-73
2022/10/29 00:09:06;;;;;;;23.00;15.38;;;19.70;90.80;;;;;;5034519;28;20026;-73
2022/10/29 00:11:33;;;;;;;22.92;15.73;;;19.70;90.90;;;;;;5025508;28;20011;-73
2022/10/29 00:14:00;;;;;;;25.38;16.48;;;19.60;91.00;;;;;;5029346;28;20044;-73
2022/10/29 00:16:35;;;;;;;24.52;16.75;;;19.50;91.00;;;;;;5033502;28;20079;-74
2022/10/29 00:19:01;;;;;;;23.20;14.85;;;19.50;91.00;;;;;;5034813;28;20028;-73
2022/10/29 00:21:26;;;;;;;25.15;16.73;;;19.50;91.00;;;;;;5034225;28;20105;-73
2022/10/29 00:23:52;;;;;;;25.58;16.27;;;19.50;91.00;;;;;;5034223;28;20025;-73
2022/10/29 00:26:20;;;;;;;24.08;17.15;;;19.50;91.00;;;;;;5032632;28;20033;-74
2022/10/29 00:28:47;;;;;;;24.98;16.80;;;19.60;91.00;;;;;;5033391;28;20137;-73
2022/10/29 00:31:15;;;;;;;25.55;16.67;;;19.60;91.00;;;;;;5033697;28;20033;-73
2022/10/29 00:33:41;;;;;;;23.88;16.73;;;19.60;90.90;;;;;;5034408;28;20112;-73
2022/10/29 00:36:20;;;;;;;28.88;17.90;;;19.60;90.80;;;;;;5032466;28;20366;-73
2022/10/29 00:38:46;;;;;;;25.27;17.90;;;19.60;90.90;;;;;;5034519;28;20032;-73
2022/10/29 00:41:16;;;;;;;24.38;18.08;;;19.60;91.00;;;;;;5032337;28;20022;-72
2022/10/29 00:43:50;;;;;;;25.83;18.08;;;19.50;91.00;;;;;;5034718;28;20047;-74
2022/10/29 00:46:32;;;;;;;27.38;18.00;;;19.50;91.10;;;;;;5032342;28;20053;-73
2022/10/29 00:48:59;;;;;;;28.23;17.48;;;19.40;91.20;;;;;;5033197;28;20033;-73
2022/10/29 00:51:25;;;;;;;26.23;17.42;;;19.30;91.30;;;;;;5033374;28;20026;-72
2022/10/29 00:54:12;;;;;;;26.17;17.52;;;19.30;91.40;;;;;;5034079;28;20523;-74
2022/10/29 00:57:04;;;;;;;24.98;17.90;;;19.30;91.50;;;;;;5032443;28;20029;-73
2022/10/29 00:59:30;;;;;;;31.73;18.55;;;19.30;91.40;;;;;;5034128;28;20029;-73
2022/10/29 01:01:55;;;;;;;27.40;18.48;;;19.20;91.40;;;;;;5032717;28;20374;-72
2022/10/29 01:04:22;;;;;;;25.40;17.85;;;19.20;91.40;;;;;;5033702;28;20087;-73
2022/10/29 01:06:48;;;;;;;25.73;18.10;;;19.20;91.40;;;;;;5031703;28;20543;-73
2022/10/29 01:09:14;;;;;;;26.85;18.60;;;19.20;91.40;;;;;;5033869;28;20042;-74
2022/10/29 01:12:11;;;;;;;27.35;18.65;;;19.20;91.40;;;;;;5031837;28;20123;-73
2022/10/29 01:14:42;;;;;;;31.15;19.20;;;19.20;91.40;;;;;;5033710;28;20036;-73
2022/10/29 01:17:39;;;;;;;27.80;18.00;;;19.10;91.40;;;;;;5032339;28;20030;-73
2022/10/29 01:20:42;;;;;;;22.88;17.42;;;19.10;91.50;;;;;;5032583;28;20108;-73
2022/10/29 01:23:19;;;;;;;25.33;17.35;;;19.10;91.50;;;;;;5014720;28;20076;-74
2022/10/29 01:26:15;;;;;;;26.60;17.60;;;19.10;91.50;;;;;;5031307;28;20540;-73
2022/10/29 01:29:02;;;;;;;21.58;16.27;;;19.10;91.50;;;;;;5032624;28;20057;-73
2022/10/29 01:31:35;;;;;;;22.85;16.35;;;19.00;91.40;;;;;;5032113;28;20111;-73
2022/10/29 01:34:12;;;;;;;26.15;16.98;;;19.00;91.40;;;;;;5032359;28;20472;-73
2022/10/29 01:36:45;;;;;;;25.48;17.05;;;19.00;91.40;;;;;;5031605;28;20033;-73
2022/10/29 01:39:24;;;;;;;22.63;16.90;;;19.00;91.40;;;;;;5032258;28;20021;-73
2022/10/29 01:42:01;;;;;;;26.80;17.33;;;19.00;91.40;;;;;;5032641;28;20040;-73
2022/10/29 01:44:59;;;;;;;23.42;16.27;;;19.00;91.40;;;;;;5032065;28;20038;-72
2022/10/29 01:47:29;;;;;;;23.42;16.08;;;19.00;91.30;;;;;;5014766;28;20041;-72
2022/10/29 01:50:03;;;;;;;25.65;17.33;;;19.10;91.30;;;;;;5029284;28;20017;-73
2022/10/29 01:52:33;;;;;;;21.52;15.50;;;19.10;91.10;;;;;;5029701;22;20057;-72
2022/10/29 01:55:02;;;;;;;24.50;16.55;;;19.10;91.10;;;;;;5006351;28;20034;-79
2022/10/29 01:57:36;;;;;;;23.98;16.70;;;19.10;91.00;;;;;;5006533;28;20034;-72
2022/10/29 02:00:11;;;;;;;22.08;15.38;;;19.00;91.00;;;;;;5002082;28;20100;-80
2022/10/29 02:02:56;;;;;;;23.92;15.55;;;19.00;91.00;;;;;;5003254;28;20027;-73
2022/10/29 02:05:54;;;;;;;22.92;15.73;;;19.00;91.00;;;;;;5024999;28;20046;-80
2022/10/29 02:08:27;;;;;;;19.88;14.13;;;19.00;91.00;;;;;;4960368;28;20100;-73
2022/10/29 02:11:06;;;;;;;20.15;14.65;;;19.00;90.90;;;;;;5002502;28;20042;-74
2022/10/29 02:13:40;;;;;;;22.85;14.57;;;19.00;90.90;;;;;;5001888;28;20037;-81
2022/10/29 02:16:08;;;;;;;21.27;14.02;;;19.00;91.10;;;;;;4999569;28;20034;-73
2022/10/29 02:18:45;;;;;;;19.38;13.88;;;18.90;90.90;;;;;;5003033;28;20473;-81
2022/10/29 02:21:15;;;;;;;19.17;12.95;;;18.90;90.90;;;;;;5013271;28;20030;-81
2022/10/29 02:23:40;;;;;;;19.40;13.03;;;18.90;90.80;;;;;;5011315;28;20505;-82
2022/10/29 02:26:06;;;;;;;18.80;12.82;;;19.00;90.80;;;;;;5011098;28;20284;-81
2022/10/29 02:28:32;;;;;;;18.42;13.05;;;18.90;90.70;;;;;;5012480;28;20030;-81
2022/10/29 02:30:57;;;;;;;20.33;12.43;;;18.90;90.70;;;;;;5012969;28;20038;-81
2022/10/29 02:33:23;;;;;;;17.95;12.00;;;18.90;90.60;;;;;;5012009;28;20026;-80
2022/10/29 02:35:49;;;;;;;22.80;11.77;;;18.90;90.60;;;;;;5012137;28;20026;-81
2022/10/29 02:38:14;;;;;;;17.95;12.48;;;18.90;90.60;;;;;;5011830;28;20037;-81
2022/10/29 02:40:40;;;;;;;16.20;11.40;;;18.90;90.60;;;;;;5013237;28;20030;-81
2022/10/29 02:43:06;;;;;;;16.23;12.35;;;18.90;90.50;;;;;;5011318;28;20428;-81
2022/10/29 02:45:32;;;;;;;15.85;11.07;;;18.90;90.40;;;;;;5011495;28;20026;-80
2022/10/29 02:47:58;;;;;;;14.95;10.93;;;18.90;90.40;;;;;;5011876;28;20056;-80
2022/10/29 02:50:24;;;;;;;15.18;11.23;;;18.80;90.40;;;;;;5012640;28;20029;-80
2022/10/29 02:52:49;;;;;;;13.07;7.97;;;18.80;90.40;;;;;;5011779;28;20034;-81
2022/10/29 02:55:15;;;;;;;10.35;7.68;;;18.80;90.00;;;;;;5013662;28;20038;-81
2022/10/29 02:57:45;;;;;;;16.40;7.88;;;18.70;90.00;;;;;;5015372;28;20048;-80
2022/10/29 03:00:12;;;;;;;13.70;8.25;;;18.70;90.00;;;;;;5016626;28;20022;-81
2022/10/29 03:02:38;;;;;;;11.15;8.07;;;18.60;90.00;;;;;;5015254;28;20042;-81
2022/10/29 03:05:04;;;;;;;15.30;8.27;;;18.50;90.00;;;;;;5016663;28;20436;-81
2022/10/29 03:07:34;;;;;;;13.77;7.80;;;18.40;90.00;;;;;;5014831;28;20109;-81
2022/10/29 03:10:00;;;;;;;13.85;8.43;;;18.40;90.10;;;;;;5016860;28;20053;-81
2022/10/29 03:12:25;;;;;;;12.23;7.95;;;18.30;90.10;;;;;;5013493;28;20065;-81
2022/10/29 03:14:51;;;;;;;17.75;8.07;;;18.30;90.10;;;;;;5016010;28;20080;-81
2022/10/29 03:17:16;;;;;;;14.52;8.48;;;18.30;90.10;;;;;;5014785;28;20478;-80
2022/10/29 03:19:42;;;;;;;10.57;8.15;;;18.30;90.10;;;;;;5014299;28;20030;-81
2022/10/29 03:22:08;;;;;;;9.02;6.95;;;18.30;90.10;;;;;;5014600;28;20034;-81
2022/10/29 03:24:33;;;;;;;12.02;7.95;;;18.30;90.10;;;;;;5015832;28;20030;-81
2022/10/29 03:26:59;;;;;;;14.60;8.10;;;18.30;90.20;;;;;;5015125;28;20034;-81
2022/10/29 03:29:25;;;;;;;10.23;7.65;;;18.40;90.10;;;;;;5013431;28;20053;-81
2022/10/29 03:31:50;;;;;;;11.43;7.80;;;18.40;90.00;;;;;;5015264;28;20037;-81
2022/10/29 03:34:16;;;;;;;12.40;8.20;;;18.40;90.00;;;;;;5014805;28;20026;-82
2022/10/29 03:36:43;;;;;;;10.88;7.93;;;18.50;89.80;;;;;;5015434;28;20033;-81
2022/10/29 03:39:09;;;;;;;10.43;7.07;;;18.50;89.60;;;;;;5015259;28;20026;-81
2022/10/29 03:41:34;;;;;;;11.07;7.78;;;18.50;89.60;;;;;;5015901;28;20033;-81
2022/10/29 03:44:00;;;;;;;9.38;7.05;;;18.50;89.50;;;;;;5014910;28;20029;-81
2022/10/29 03:46:26;;;;;;;10.85;7.80;;;18.50;89.40;;;;;;5004892;28;20042;-81
2022/10/29 03:48:52;;;;;;;8.98;7.10;;;18.50;89.40;;;;;;5014635;28;20398;-81
2022/10/29 03:51:17;;;;;;;10.27;6.95;;;18.50;89.40;;;;;;5015445;28;20088;-81
2022/10/29 03:53:43;;;;;;;9.98;6.53;;;18.50;89.40;;;;;;5013078;28;20045;-81
2022/10/29 03:56:09;;;;;;;12.38;7.32;;;18.50;89.40;;;;;;5029805;28;20034;-81
2022/10/29 03:58:35;;;;;;;9.15;6.85;;;18.50;89.40;;;;;;5014578;28;20482;-81
2022/10/29 04:01:03;;;;;;;10.50;7.32;;;18.40;89.50;;;;;;5014004;28;20030;-81
2022/10/29 04:03:31;;;;;;;12.90;7.18;;;18.40;89.50;;;;;;5014791;28;20025;-81
2022/10/29 04:06:00;;;;;;;13.65;8.23;;;18.40;89.70;;;;;;5028872;28;20038;-80
2022/10/29 04:08:26;;;;;;;11.60;8.43;;;18.40;89.70;;;;;;5014729;28;20029;-80
2022/10/29 04:10:52;;;;;;;11.80;8.63;;;18.40;89.50;;;;;;5015478;28;20100;-73
2022/10/29 04:13:19;;;;;;;12.05;8.35;;;18.30;89.60;;;;;;5014180;28;20365;-73
2022/10/29 04:15:45;;;;;;;13.10;8.63;;;18.30;89.80;;;;;;5013332;28;20042;-73
2022/10/29 04:18:11;;;;;;;13.40;8.82;;;18.30;89.80;;;;;;5014435;28;20075;-74
2022/10/29 04:20:38;;;;;;;13.50;8.77;;;18.30;89.70;;;;;;5014632;28;20417;-73
2022/10/29 04:23:04;;;;;;;13.18;9.32;;;18.40;89.50;;;;;;5014457;28;20052;-73
2022/10/29 04:25:30;;;;;;;12.82;8.88;;;18.30;89.50;;;;;;5013894;28;20117;-74
2022/10/29 04:27:56;;;;;;;13.30;8.50;;;18.30;89.60;;;;;;5013732;28;20144;-74
2022/10/29 04:30:23;;;;;;;13.07;8.95;;;18.30;89.60;;;;;;5013439;28;20045;-73
2022/10/29 04:32:49;;;;;;;13.90;8.57;;;18.20;89.70;;;;;;5013624;28;20665;-73
2022/10/29 04:35:15;;;;;;;13.80;8.27;;;18.20;89.70;;;;;;5014415;28;20030;-73
2022/10/29 04:37:41;;;;;;;11.75;8.10;;;18.10;89.80;;;;;;5012087;28;20029;-73
2022/10/29 04:40:07;;;;;;;14.65;8.40;;;18.00;90.00;;;;;;5014330;28;20025;-73
2022/10/29 04:42:37;;;;;;;10.65;8.20;;;18.00;90.00;;;;;;5010743;28;20418;-73
2022/10/29 04:45:04;;;;;;;8.57;7.13;;;17.90;90.00;;;;;;5013719;28;20360;-73
2022/10/29 04:47:29;;;;;;;12.55;8.13;;;17.90;90.10;;;;;;5013083;28;20037;-73
2022/10/29 04:49:55;;;;;;;10.45;7.35;;;17.80;90.20;;;;;;5013705;28;20034;-73
2022/10/29 04:52:21;;;;;;;9.20;7.55;;;17.70;90.20;;;;;;5013458;28;20490;-73
2022/10/29 04:54:46;;;;;;;11.38;8.27;;;17.70;90.20;;;;;;5012452;28;20393;-73
2022/10/29 04:57:12;;;;;;;9.43;6.90;;;17.60;90.30;;;;;;5012220;28;20128;-73
2022/10/29 04:59:37;;;;;;;12.05;7.03;;;17.60;90.40;;;;;;5014329;28;20088;-72
2022/10/29 05:02:03;;;;;;;9.82;7.30;;;17.50;90.40;;;;;;5013478;28;20030;-72
2022/10/29 05:04:29;;;;;;;9.50;6.97;;;17.50;90.40;;;;;;5013093;28;20370;-73
2022/10/29 05:06:54;;;;;;;12.38;7.15;;;17.50;90.40;;;;;;5012578;28;20437;-73
2022/10/29 05:09:20;;;;;;;9.95;6.38;;;17.40;90.40;;;;;;5013200;28;20037;-73
2022/10/29 05:11:46;;;;;;;10.35;7.50;;;17.40;90.40;;;;;;5011906;28;20103;-73
2022/10/29 05:14:11;;;;;;;14.00;7.72;;;17.40;90.50;;;;;;5012198;28;20054;-73
2022/10/29 05:16:37;;;;;;;11.60;7.10;;;17.40;90.50;;;;;;5013008;28;20406;-72
2022/10/29 05:19:03;;;;;;;13.38;6.80;;;17.50;90.50;;;;;;5011654;28;20045;-73
2022/10/29 05:21:29;;;;;;;15.30;7.45;;;17.40;90.50;;;;;;5012964;28;20458;-73
2022/10/29 05:23:55;;;;;;;9.23;7.10;;;17.50;90.50;;;;;;5011973;28;20048;-72
2022/10/29 05:26:21;;;;;;;8.25;7.10;;;17.50;90.50;;;;;;5012979;28;20030;-72
2022/10/29 05:28:49;;;;;;;9.43;6.63;;;17.50;90.50;;;;;;5012270;28;20034;-72
2022/10/29 05:31:15;;;;;;;10.13;7.10;;;17.50;90.50;;;;;;5012538;28;20038;-72
2022/10/29 05:33:40;;;;;;;16.13;7.30;;;17.50;90.50;;;;;;5008811;28;20065;-73
2022/10/29 05:36:06;;;;;;;8.63;7.00;;;17.50;90.40;;;;;;5006128;28;20496;-73
2022/10/29 05:38:32;;;;;;;13.30;7.80;;;17.50;90.40;;;;;;5003271;28;20033;-72
2022/10/29 05:40:58;;;;;;;9.48;6.82;;;17.50;90.40;;;;;;4998454;28;20371;-73
2022/10/29 05:43:24;;;;;;;9.82;7.88;;;17.40;90.40;;;;;;5004821;28;20032;-73
2022/10/29 05:45:49;;;;;;;12.32;7.82;;;17.40;90.50;;;;;;5010702;28;20034;-71
2022/10/29 05:48:15;;;;;;;10.88;8.15;;;17.30;90.60;;;;;;5006503;28;20038;-71
2022/10/29 05:50:41;;;;;;;10.60;7.20;;;17.40;90.70;;;;;;5002157;28;20076;-71
2022/10/29 05:53:11;;;;;;;12.98;7.25;;;17.40;90.60;;;;;;5011024;28;20084;-68
2022/10/29 05:55:36;;;;;;;10.70;7.90;;;17.40;90.60;;;;;;5010050;28;20034;-68
2022/10/29 05:58:05;;;;;;;11.55;7.15;;;17.40;90.60;;;;;;5012299;28;20064;-68
2022/10/29 06:00:36;;;;;;;10.00;7.68;;;17.40;90.50;;;;;;5009299;28;20072;-68
2022/10/29 06:03:02;;;;;;;12.07;8.25;;;17.40;90.40;;;;;;5006871;28;20037;-74
2022/10/29 06:05:28;;;;;;;11.82;8.70;;;17.30;90.40;;;;;;5011946;28;20719;-74
2022/10/29 06:07:59;;;;;;;12.27;6.82;;;17.30;90.50;;;;;;5011496;28;20473;-74
2022/10/29 06:10:27;;;;;;;12.05;7.63;;;17.30;90.50;;;;;;5011422;28;20036;-77
2022/10/29 06:12:53;;;;;;;10.20;8.20;;;17.20;90.40;;;;;;5011535;28;20038;-78
2022/10/29 06:15:19;;;;;;;11.23;7.85;;;17.20;90.50;;;;;;5013299;28;20029;-78
2022/10/29 06:17:45;;;;;;;9.23;7.13;;;17.20;90.50;;;;;;5011520;28;20137;-78
2022/10/29 06:20:13;;;;;;;11.77;7.35;;;17.10;90.50;;;;;;5013514;28;20476;-78
2022/10/29 06:22:39;;;;;;;11.18;6.75;;;17.20;90.60;;;;;;5011211;28;20042;-71
2022/10/29 06:25:05;;;;;;;11.55;7.45;;;17.10;90.60;;;;;;5012202;28;20037;-71
2022/10/29 06:27:31;;;;;;;10.25;6.95;;;17.10;90.50;;;;;;4991372;28;20051;-71
2022/10/29 06:29:57;;;;;;;10.10;7.47;;;17.10;90.70;;;;;;5016267;28;20022;-70
2022/10/29 06:32:22;;;;;;;10.38;7.63;;;17.10;90.70;;;;;;5014747;28;20042;-72
2022/10/29 06:34:48;;;;;;;8.95;7.13;;;17.10;90.60;;;;;;5014769;28;20030;-70
2022/10/29 06:37:14;;;;;;;11.38;7.43;;;17.10;90.60;;;;;;5015342;28;20026;-71
2022/10/29 06:39:39;;;;;;;10.43;8.00;;;17.00;90.60;;;;;;5017532;28;20501;-71
2022/10/29 06:42:05;;;;;;;9.75;6.60;;;17.00;90.60;;;;;;5012730;28;20018;-71
2022/10/29 06:44:31;;;;;;;10.93;7.93;;;17.00;90.50;;;;;;5015957;28;20026;-70
2022/10/29 06:46:56;;;;;;;9.93;7.20;;;17.00;90.60;;;;;;5015861;28;20466;-71
2022/10/29 06:49:22;;;;;;;12.75;6.82;;;16.90;90.50;;;;;;5015318;28;20509;-71
2022/10/29 06:51:48;;;;;;;11.15;6.72;;;16.90;90.60;;;;;;5014535;28;20033;-71
2022/10/29 06:54:14;;;;;;;14.48;7.57;;;16.90;90.70;;;;;;5015787;28;20046;-71
2022/10/29 06:56:39;;;;;;;11.57;6.93;;;16.90;90.70;;;;;;5015885;28;20494;-71
2022/10/29 06:59:05;;;;;;;10.65;6.30;;;17.00;90.80;;;;;;5016932;28;20097;-85
2022/10/29 07:01:34;;;;;;;8.82;7.05;;;17.00;90.70;;;;;;5010270;28;20508;-73
2022/10/29 07:03:59;;;;;;;11.70;6.65;;;17.10;90.70;;;;;;5010718;28;20061;-72
2022/10/29 07:06:26;;;;;;;13.85;7.45;;;17.10;90.60;;;;;;5010535;28;20367;-80
2022/10/29 07:08:51;;;;;;;10.73;6.70;;;17.00;90.60;;;;;;5011132;28;20066;-71
2022/10/29 07:11:17;;;;;;;8.27;6.40;;;17.00;90.70;;;;;;5013787;28;20139;-72
2022/10/29 07:13:43;;;;;;;8.15;6.22;;;17.00;90.80;;;;;;5000197;28;20038;-80
2022/10/29 07:16:08;;;;;;;9.45;6.63;;;17.10;90.80;;;;;;4996920;28;20034;-80
2022/10/29 07:18:34;;;;;;;9.85;6.20;;;17.30;90.80;;;;;;4998107;28;20471;-80
2022/10/29 07:21:02;;;;;;;8.95;6.85;;;17.40;90.70;;;;;;4997952;28;20033;-79
2022/10/29 07:23:28;;;;;;;14.15;6.97;;;17.40;90.60;;;;;;5008087;28;20121;-79
2022/10/29 07:25:54;;;;;;;8.70;6.38;;;17.50;90.60;;;;;;5015475;28;20069;-79
2022/10/29 07:28:22;;;;;;;11.43;7.47;;;17.50;90.60;;;;;;5014135;28;20037;-79
2022/10/29 07:30:48;;;;;;;12.02;7.90;;;17.60;90.50;;;;;;5007829;28;20026;-79
2022/10/29 07:33:15;;;;;;;11.27;6.85;;;17.70;90.60;;;;;;4993067;28;20046;-79
2022/10/29 07:35:41;;;;;;;18.63;7.32;;;17.80;90.60;;;;;;5010329;28;20065;-79
2022/10/29 07:38:08;;;;;;;14.75;7.20;;;17.80;90.50;;;;;;5011026;28;20062;-79
2022/10/29 07:40:34;;;;;;;9.07;7.15;;;18.00;90.40;;;;;;5012729;28;20484;-79
2022/10/29 07:43:00;;;;;;;10.15;6.85;;;18.10;90.30;;;;;;5014983;28;20116;-79
2022/10/29 07:45:26;;;;;;;12.02;7.18;;;18.20;90.20;;;;;;5015405;28;20130;-72
2022/10/29 07:48:03;;;;;;;11.80;6.93;;;18.30;90.20;;;;;;5015460;28;20097;-72
2022/10/29 07:50:30;;;;;;;12.15;7.15;;;18.30;90.10;;;;;;5014563;28;20030;-74
2022/10/29 07:53:01;;;;;;;12.02;6.90;;;18.40;90.10;;;;;;5014165;28;20493;-80
2022/10/29 07:55:27;;;;;;;11.20;7.90;;;18.50;90.00;;;;;;5015505;28;20474;-82
2022/10/29 07:58:00;;;;;;;10.63;7.50;;;18.60;90.00;;;;;;5015052;28;20421;-80
2022/10/29 08:00:29;;;;;;;10.68;8.30;;;18.70;89.80;;;;;;5014977;28;20030;-80
2022/10/29 08:02:55;;;;;;;14.57;8.80;;;18.80;89.70;;;;;;5013830;28;20030;-80
2022/10/29 08:05:22;;;;;;;14.75;8.82;;;18.90;89.80;;;;;;5014605;28;20076;-81
2022/10/29 08:07:48;;;;;;;14.27;8.85;;;19.00;89.80;;;;;;5015075;28;20088;-79
2022/10/29 08:10:14;;;;;;;12.80;8.52;;;19.00;89.60;;;;;;5014471;28;20650;-80
2022/10/29 08:12:40;;;;;;;17.65;10.38;;;19.10;89.40;;;;;;5014009;28;20042;-80
2022/10/29 08:15:06;;;;;;;19.15;10.50;;;19.20;88.80;;;;;;5015103;28;20101;-80
2022/10/29 08:17:32;;;;;;;11.95;8.80;;;19.10;88.40;;;;;;5015412;28;20105;-80
2022/10/29 08:19:57;;;;;;;12.38;8.70;;;19.20;88.90;;;;;;5013849;28;20153;-80
2022/10/29 08:22:23;;;;;;;13.13;7.78;;;19.30;88.90;;;;;;5013777;28;20041;-80
2022/10/29 08:24:49;;;;;;;15.18;10.10;;;19.50;88.90;;;;;;5014665;28;20466;-81
2022/10/29 08:27:14;;;;;;;15.73;10.00;;;19.60;88.70;;;;;;5013505;28;20125;-80
2022/10/29 08:29:40;;;;;;;19.33;12.23;;;19.80;88.20;;;;;;5014668;28;20057;-80
2022/10/29 08:32:06;;;;;;;15.35;10.60;;;19.80;87.80;;;;;;5013114;28;20041;-80
2022/10/29 08:34:32;;;;;;;16.02;11.25;;;19.90;88.00;;;;;;5014744;28;20394;-81
2022/10/29 08:36:58;;;;;;;14.20;11.15;;;20.00;87.70;;;;;;5014382;28;20462;-74
2022/10/29 08:39:24;;;;;;;17.45;12.38;;;20.10;87.70;;;;;;5011990;28;20537;-73
2022/10/29 08:42:28;;;;;;;18.92;12.73;;;20.20;87.30;;;;;;5007870;28;20045;-81
2022/10/29 08:45:15;;;;;;;18.35;11.07;;;20.30;86.90;;;;;;4994104;28;20116;-80
2022/10/29 08:48:07;;;;;;;23.98;12.63;;;20.40;86.80;;;;;;5011181;28;20362;-74
2022/10/29 08:50:41;;;;;;;13.52;10.77;;;20.50;86.80;;;;;;4989875;28;20091;-73
2022/10/29 08:53:23;;;;;;;13.73;9.95;;;20.50;86.60;;;;;;5010481;28;20117;-72
2022/10/29 08:55:49;;;;;;;18.60;12.43;;;20.70;86.80;;;;;;5008820;28;20022;-72
2022/10/29 08:58:32;;;;;;;15.23;11.05;;;20.80;86.20;;;;;;5013385;28;20052;-73
2022/10/29 09:00:58;;;;;;;15.43;10.85;;;21.00;85.80;;;;;;5008947;28;20483;-73
2022/10/29 09:03:28;;;;;;;14.40;10.80;;;21.10;85.80;;;;;;5011883;28;20415;-73
2022/10/29 09:05:53;;;;;;;16.67;10.52;;;21.20;85.50;;;;;;5007497;28;20085;-73
2022/10/29 09:08:48;;;;;;;17.27;11.13;;;21.40;85.10;;;;;;5013218;28;20045;-80
2022/10/29 09:11:29;;;;;;;14.80;10.55;;;21.60;84.80;;;;;;5011764;28;20032;-81
2022/10/29 09:14:27;;;;;;;16.20;10.48;;;21.80;84.50;;;;;;5010850;28;20037;-82
2022/10/29 09:17:10;;;;;;;34.15;11.30;;;22.10;84.00;;;;;;5010238;28;20758;-81
2022/10/29 09:19:43;;;;;;;15.95;10.23;;;22.30;83.50;;;;;;5013066;28;20505;-81
2022/10/29 09:22:15;;;;;;;16.30;10.80;;;22.50;82.90;;;;;;5012284;28;20022;-73
2022/10/29 09:24:52;;;;;;;14.05;10.13;;;22.60;82.30;;;;;;5012902;28;20030;-73
2022/10/29 09:27:29;;;;;;;12.18;9.82;;;22.80;82.00;;;;;;5011298;28;20473;-73
2022/10/29 09:29:54;;;;;;;15.27;10.55;;;22.90;81.50;;;;;;5010874;28;20033;-72
2022/10/29 09:32:32;;;;;;;15.55;9.00;;;23.00;80.90;;;;;;4994458;28;20034;-73
2022/10/29 09:35:13;;;;;;;10.88;8.20;;;23.10;80.60;;;;;;5009990;28;20030;-73
2022/10/29 09:37:56;;;;;;;15.32;8.35;;;23.30;80.30;;;;;;5004218;28;20116;-74
2022/10/29 09:40:39;;;;;;;15.05;9.27;;;23.50;79.80;;;;;;5005848;28;20046;-72
2022/10/29 09:43:31;;;;;;;12.48;8.30;;;23.70;79.20;;;;;;5001040;28;20105;-73
2022/10/29 09:46:15;;;;;;;15.27;9.13;;;23.80;78.80;;;;;;5008721;28;20022;-78
2022/10/29 09:49:20;;;;;;;16.70;9.25;;;24.00;78.50;;;;;;5013395;28;20064;-80
2022/10/29 09:51:54;;;;;;;14.65;9.00;;;24.20;78.00;;;;;;5008767;28;20482;-80
2022/10/29 09:54:24;;;;;;;12.80;9.55;;;24.40;78.20;;;;;;5011114;28;20073;-81
2022/10/29 09:56:50;;;;;;;17.67;10.23;;;24.40;77.20;;;;;;5011517;28;20030;-74
2022/10/29 09:59:32;;;;;;;16.00;8.93;;;24.50;76.90;;;;;;5009360;28;20566;-74
2022/10/29 10:01:58;;;;;;;17.40;9.68;;;24.70;76.60;;;;;;5008051;28;20034;-75
2022/10/29 10:04:31;;;;;;;14.07;8.93;;;24.80;76.20;;;;;;5006779;28;20066;-76
2022/10/29 10:07:06;;;;;;;13.93;8.27;;;24.90;75.50;;;;;;5011793;28;20128;-78
2022/10/29 10:10:00;;;;;;;13.95;8.68;;;25.00;75.40;;;;;;5008116;28;20019;-82
2022/10/29 10:12:36;;;;;;;17.13;9.68;;;25.20;75.10;;;;;;5010294;28;20387;-76
2022/10/29 10:15:16;;;;;;;12.88;8.07;;;25.40;74.70;;;;;;5013001;28;20050;-76
2022/10/29 10:17:59;;;;;;;11.07;8.23;;;25.50;74.40;;;;;;5010546;28;20026;-76
2022/10/29 10:20:26;;;;;;;12.63;7.32;;;25.70;73.50;;;;;;5011137;28;20458;-76
2022/10/29 10:22:52;;;;;;;10.75;7.82;;;25.80;72.70;;;;;;5011512;28;20026;-76
2022/10/29 10:25:34;;;;;;;9.15;6.57;;;25.90;72.30;;;;;;5010923;28;20108;-76
2022/10/29 10:28:18;;;;;;;16.52;6.95;;;25.90;71.30;;;;;;5009973;28;20034;-76
2022/10/29 10:31:04;;;;;;;11.13;7.15;;;25.90;70.70;;;;;;5006718;28;20406;-82
2022/10/29 10:33:31;;;;;;;14.20;7.82;;;26.00;70.90;;;;;;5006064;28;20108;-82
2022/10/29 10:36:06;;;;;;;14.52;6.93;;;26.20;71.00;;;;;;5008461;28;20036;-83
2022/10/29 10:38:46;;;;;;;12.65;6.55;;;26.30;70.80;;;;;;5006933;28;20052;-83
2022/10/29 10:41:14;;;;;;;10.02;6.50;;;26.50;70.70;;;;;;5009449;28;20045;-82
2022/10/29 10:43:45;;;;;;;14.15;7.30;;;26.70;70.50;;;;;;5009300;28;20026;-82
2022/10/29 10:46:18;;;;;;;11.77;8.50;;;26.80;69.80;;;;;;5003405;28;20034;-82
2022/10/29 10:48:55;;;;;;;12.63;8.23;;;26.90;69.40;;;;;;5004277;28;20065;-83
2022/10/29 10:51:28;;;;;;;11.48;7.00;;;26.90;69.30;;;;;;5011689;28;20377;-83
2022/10/29 10:53:54;;;;;;;9.45;6.82;;;27.00;69.50;;;;;;5009524;28;20053;-76
2022/10/29 10:56:21;;;;;;;10.32;7.90;;;27.20;69.40;;;;;;4999079;28;20029;-82
2022/10/29 10:59:11;;;;;;;11.82;7.68;;;27.30;68.90;;;;;;5005939;28;20022;-82
2022/10/29 11:01:43;;;;;;;9.95;7.40;;;27.50;68.50;;;;;;5008616;28;20120;-78
2022/10/29 11:04:19;;;;;;;15.88;10.43;;;27.60;68.40;;;;;;5010860;28;20473;-77
2022/10/29 11:06:48;;;;;;;10.60;7.28;;;27.70;67.50;;;;;;5011164;28;20033;-76
2022/10/29 11:09:26;;;;;;;11.35;8.15;;;27.80;67.10;;;;;;5008916;28;20033;-77
2022/10/29 11:12:04;;;;;;;14.63;10.50;;;27.90;66.60;;;;;;5003734;28;20462;-83
2022/10/29 11:14:48;;;;;;;14.77;9.68;;;28.10;66.00;;;;;;5010278;28;20045;-82
2022/10/29 11:17:38;;;;;;;13.15;8.75;;;28.10;64.70;;;;;;5014288;28;20470;-76
2022/10/29 11:20:27;;;;;;;13.75;10.05;;;28.20;65.20;;;;;;5016013;28;20022;-78
2022/10/29 11:23:15;;;;;;;13.82;9.23;;;28.60;65.30;;;;;;5000182;28;20034;-83
2022/10/29 11:26:08;;;;;;;18.10;9.60;;;29.20;64.10;;;;;;4962732;28;20066;-83
2022/10/29 11:28:42;;;;;;;14.15;9.68;;;30.20;62.60;;;;;;5009544;28;20049;-76
2022/10/29 11:31:14;;;;;;;14.88;9.20;;;31.40;60.50;;;;;;5001785;28;20042;-80
2022/10/29 11:33:44;;;;;;;14.07;9.85;;;32.50;58.20;;;;;;5004680;28;20568;-82
2022/10/29 11:36:26;;;;;;;13.10;9.82;;;33.40;56.00;;;;;;5003120;28;20030;-82
2022/10/29 11:38:55;;;;;;;14.45;10.02;;;34.20;54.00;;;;;;5007195;28;20386;-83
2022/10/29 11:41:39;;;;;;;;;;;34.90;51.90;;;;;;5009576;28;20026;-77
2022/10/29 11:44:13;;;;;;;13.95;10.82;;;35.40;50.50;;;;;;5006185;28;19913;-76
2022/10/29 11:47:17;;;;;;;13.70;10.25;;;36.00;49.20;;;;;;5010701;28;20041;-76
2022/10/29 11:50:04;;;;;;;13.25;10.00;;;36.40;48.40;;;;;;5005352;28;20500;-82
2022/10/29 11:52:39;;;;;;;14.82;10.75;;;36.70;46.20;;;;;;5007192;28;20049;-82
2022/10/29 11:55:13;;;;;;;17.50;9.95;;;37.00;45.90;;;;;;5008718;28;20079;-84
2022/10/29 11:58:05;;;;;;;15.80;11.13;;;37.20;45.40;;;;;;5008008;28;20022;-84
2022/10/29 12:00:50;;;;;;;17.08;11.63;;;37.40;44.70;;;;;;5025104;28;20130;-85
2022/10/29 12:03:33;;;;;;;13.32;10.40;;;37.50;43.90;;;;;;5009408;28;20033;-83
2022/10/29 12:06:05;;;;;;;14.60;11.63;;;37.50;43.90;;;;;;5012252;28;20040;-83
2022/10/29 12:08:43;;;;;;;18.15;11.75;;;37.40;45.00;;;;;;5000813;28;20041;-84
2022/10/29 12:11:25;;;;;;;15.15;11.02;;;37.20;45.30;;;;;;5007133;28;20044;-83
2022/10/29 12:14:07;;;;;;;15.75;11.55;;;37.00;45.90;;;;;;5008155;28;20080;-84
2022/10/29 12:16:53;;;;;;;13.13;11.00;;;36.60;46.00;;;;;;5001314;28;20030;-84
2022/10/29 12:19:19;;;;;;;17.17;11.88;;;36.30;46.50;;;;;;5007781;28;20132;-83
2022/10/29 12:22:29;;;;;;;16.40;10.95;;;36.00;46.60;;;;;;5011057;28;20474;-83
2022/10/29 12:25:25;;;;;;;13.63;10.85;;;35.50;47.10;;;;;;5006132;28;20109;-82
2022/10/29 12:28:17;;;;;;;15.45;10.88;;;35.20;48.10;;;;;;5007000;28;20042;-83
2022/10/29 12:30:56;;;;;;;15.02;10.70;;;35.10;48.60;;;;;;5015055;28;20041;-76
2022/10/29 12:33:36;;;;;;;15.15;11.05;;;35.00;48.80;;;;;;4995287;28;20050;-82
2022/10/29 12:36:12;;;;;;;13.77;10.57;;;35.00;48.90;;;;;;5009744;28;20018;-80
2022/10/29 12:38:42;;;;;;;17.98;12.48;;;35.10;48.70;;;;;;5006448;28;20521;-76
2022/10/29 12:41:20;;;;;;;16.98;12.15;;;35.20;48.30;;;;;;4998818;28;20041;-73
2022/10/29 12:43:47;;;;;;;23.30;13.65;;;35.20;48.40;;;;;;5000898;28;20034;-77
2022/10/29 12:46:39;;;;;;;33.42;13.88;;;35.20;48.60;;;;;;5000717;28;20030;-73
2022/10/29 12:49:12;;;;;;;21.75;12.15;;;35.20;48.40;;;;;;5000696;28;20142;-73
2022/10/29 12:51:52;;;;;;;15.40;12.32;;;35.20;47.90;;;;;;4999576;28;20034;-77
2022/10/29 12:54:43;;;;;;;15.73;11.38;;;35.00;47.70;;;;;;5002947;28;20128;-73
2022/10/29 12:57:13;;;;;;;22.48;12.70;;;34.30;47.90;;;;;;4994925;28;20596;-73